createdAt,value
2023-03-24T00:00:28.578Z,11.07
2023-03-24T00:01:30.673Z,11.06
2023-03-24T00:02:37.932Z,11.08
2023-03-24T00:03:40.434Z,11.13
2023-03-24T00:04:42.985Z,11.17
2023-03-24T00:05:45.103Z,11.13
2023-03-24T00:06:49.432Z,11.13
2023-03-24T00:08:56.152Z,11.16
2023-03-24T00:09:57.985Z,11.17
2023-03-24T00:11:01.962Z,11.16
2023-03-24T00:12:04.177Z,11.17
2023-03-24T00:13:06.280Z,11.18
2023-03-24T00:14:12.349Z,11.15
2023-03-24T00:15:15.711Z,11.14
2023-03-24T00:16:19.822Z,11.16
2023-03-24T00:17:25.603Z,11.12
2023-03-24T00:18:27.549Z,11.08
2023-03-24T00:19:29.410Z,11.00
2023-03-24T00:20:33.155Z,10.93
2023-03-24T00:21:35.092Z,10.97
2023-03-24T00:22:36.862Z,11.00
2023-03-24T00:23:38.753Z,11.06
2023-03-24T00:24:41.336Z,11.10
2023-03-24T00:25:43.127Z,11.15
2023-03-24T00:26:45.000Z,11.17
2023-03-24T00:27:49.139Z,11.17
2023-03-24T00:28:51.482Z,11.19
2023-03-24T00:29:53.341Z,11.16
2023-03-24T00:30:55.131Z,11.15
2023-03-24T00:31:56.982Z,11.17
2023-03-24T00:32:59.277Z,11.20
2023-03-24T00:34:03.160Z,11.18
2023-03-24T00:35:09.207Z,11.16
2023-03-24T00:36:14.416Z,11.15
2023-03-24T00:37:16.372Z,11.12
2023-03-24T00:38:19.851Z,11.12
2023-03-24T00:39:21.715Z,11.15
2023-03-24T00:40:23.759Z,11.16
2023-03-24T00:41:27.438Z,11.18
2023-03-24T00:42:29.670Z,11.18
2023-03-24T00:43:31.942Z,11.16
2023-03-24T00:44:34.713Z,11.14
2023-03-24T00:45:36.536Z,11.11
2023-03-24T00:46:39.232Z,11.10
2023-03-24T00:47:41.801Z,11.05
2023-03-24T00:48:43.601Z,10.99
2023-03-24T00:49:45.449Z,10.98
2023-03-24T00:50:48.629Z,10.97
2023-03-24T00:51:51.690Z,10.98
2023-03-24T00:52:53.917Z,10.98
2023-03-24T00:53:58.363Z,10.99
2023-03-24T00:55:02.431Z,10.96
2023-03-24T00:56:04.408Z,10.97
2023-03-24T00:57:07.558Z,10.97
2023-03-24T00:58:09.472Z,10.91
2023-03-24T00:59:11.370Z,10.91
2023-03-24T01:00:17.188Z,10.93
2023-03-24T01:01:19.178Z,10.96
2023-03-24T01:02:24.844Z,11.01
2023-03-24T01:03:27.764Z,11.04
2023-03-24T01:04:31.019Z,11.04
2023-03-24T01:05:33.363Z,10.97
2023-03-24T01:06:37.430Z,10.97
2023-03-24T01:07:42.487Z,10.96
2023-03-24T01:08:45.652Z,10.96
2023-03-24T01:09:59.986Z,10.97
2023-03-24T01:11:01.777Z,10.96
2023-03-24T01:12:04.802Z,10.94
2023-03-24T01:13:06.700Z,10.98
2023-03-24T01:14:09.953Z,11.00
2023-03-24T01:15:16.679Z,11.02
2023-03-24T01:16:18.906Z,11.06
2023-03-24T01:17:25.760Z,11.06
2023-03-24T01:18:28.114Z,11.05
2023-03-24T01:19:30.146Z,11.00
2023-03-24T01:20:33.417Z,10.94
2023-03-24T01:21:37.300Z,10.96
2023-03-24T01:22:40.183Z,11.00
2023-03-24T01:23:42.442Z,11.04
2023-03-24T01:24:44.462Z,11.05
2023-03-24T01:25:48.419Z,11.05
2023-03-24T01:26:50.265Z,11.04
2023-03-24T01:27:52.597Z,11.02
2023-03-24T01:28:54.549Z,11.03
2023-03-24T01:30:00.513Z,10.99
2023-03-24T01:31:02.393Z,10.94
2023-03-24T01:32:04.319Z,10.91
2023-03-24T01:33:06.972Z,10.94
2023-03-24T01:34:08.970Z,10.96
2023-03-24T01:35:11.792Z,10.95
2023-03-24T01:36:13.843Z,10.93
2023-03-24T01:37:15.756Z,10.94
2023-03-24T01:38:17.677Z,10.94
2023-03-24T01:39:19.609Z,10.92
2023-03-24T01:40:26.063Z,10.86
2023-03-24T01:41:30.637Z,10.88
2023-03-24T01:42:32.401Z,10.93
2023-03-24T01:43:34.846Z,10.96
2023-03-24T01:44:38.015Z,10.97
2023-03-24T01:45:40.020Z,10.97
2023-03-24T01:46:41.965Z,10.98
2023-03-24T01:47:43.820Z,11.02
2023-03-24T01:48:53.605Z,11.01
2023-03-24T01:49:59.659Z,11.04
2023-03-24T01:51:13.051Z,11.04
2023-03-24T01:52:17.738Z,11.05
2023-03-24T01:53:20.790Z,11.01
2023-03-24T01:54:23.033Z,10.97
2023-03-24T01:55:24.966Z,10.89
2023-03-24T01:56:27.830Z,10.84
2023-03-24T01:57:37.357Z,10.84
2023-03-24T01:58:41.582Z,10.82
2023-03-24T01:59:46.023Z,10.78
2023-03-24T02:00:48.205Z,10.78
2023-03-24T02:01:50.081Z,10.79
2023-03-24T02:02:55.146Z,10.82
2023-03-24T02:03:58.265Z,10.83
2023-03-24T02:05:02.729Z,10.84
2023-03-24T02:06:05.352Z,10.81
2023-03-24T02:07:19.605Z,10.79
2023-03-24T02:08:31.363Z,10.78
2023-03-24T02:09:34.335Z,10.77
2023-03-24T02:10:36.820Z,10.78
2023-03-24T02:11:39.247Z,10.82
2023-03-24T02:12:42.221Z,10.83
2023-03-24T02:13:44.150Z,10.86
2023-03-24T02:14:46.746Z,10.85
2023-03-24T02:16:07.617Z,10.80
2023-03-24T02:17:22.031Z,10.76
2023-03-24T02:18:34.279Z,10.73
2023-03-24T02:19:38.590Z,10.73
2023-03-24T02:20:43.631Z,10.72
2023-03-24T02:22:05.664Z,10.76
2023-03-24T02:23:14.941Z,10.78
2023-03-24T02:24:29.117Z,10.81
2023-03-24T02:25:43.137Z,10.79
2023-03-24T02:26:47.910Z,10.80
2023-03-24T02:27:55.832Z,10.79
2023-03-24T02:29:04.044Z,10.80
2023-03-24T02:30:08.828Z,10.80
2023-03-24T02:31:33.957Z,10.74
2023-03-24T02:32:38.351Z,10.76
2023-03-24T02:33:43.845Z,10.78
2023-03-24T02:34:55.404Z,10.73
2023-03-24T02:35:57.180Z,10.75
2023-03-24T02:37:19.092Z,10.81
2023-03-24T02:38:29.801Z,10.86
2023-03-24T02:39:48.620Z,10.87
2023-03-24T02:41:09.102Z,10.82
2023-03-24T02:42:10.933Z,10.76
2023-03-24T02:43:18.909Z,10.75
2023-03-24T02:44:25.569Z,10.72
2023-03-24T02:45:39.581Z,10.77
2023-03-24T02:46:41.956Z,10.77
2023-03-24T02:47:46.767Z,10.78
2023-03-24T02:48:51.849Z,10.79
2023-03-24T02:50:10.658Z,10.80
2023-03-24T02:51:17.388Z,10.75
2023-03-24T02:52:19.130Z,10.73
2023-03-24T02:53:24.809Z,10.75
2023-03-24T02:54:38.525Z,10.74
2023-03-24T02:55:40.368Z,10.73
2023-03-24T02:56:45.282Z,10.75
2023-03-24T02:57:56.654Z,10.77
2023-03-24T02:59:10.546Z,10.80
2023-03-24T03:00:18.976Z,10.76
2023-03-24T03:01:32.648Z,10.78
2023-03-24T03:02:38.013Z,10.81
2023-03-24T03:03:42.019Z,10.77
2023-03-24T03:05:14.320Z,10.70
2023-03-24T03:06:16.138Z,10.72
2023-03-24T03:07:22.234Z,10.69
2023-03-24T03:08:25.771Z,10.68
2023-03-24T03:09:29.124Z,10.66
2023-03-24T03:10:33.835Z,10.65
2023-03-24T03:11:36.056Z,10.67
2023-03-24T03:12:38.955Z,10.71
2023-03-24T03:13:44.027Z,10.73
2023-03-24T03:14:52.198Z,10.75
2023-03-24T03:15:56.113Z,10.76
2023-03-24T03:17:04.578Z,10.63
2023-03-24T03:18:21.360Z,10.56
2023-03-24T03:19:26.858Z,10.58
2023-03-24T03:20:31.286Z,10.61
2023-03-24T03:21:36.699Z,10.59
2023-03-24T03:22:45.582Z,10.59
2023-03-24T03:23:51.157Z,10.57
2023-03-24T03:24:54.442Z,10.60
2023-03-24T03:26:05.776Z,10.63
2023-03-24T03:27:15.261Z,10.65
2023-03-24T03:28:20.836Z,10.68
2023-03-24T03:29:24.237Z,10.72
2023-03-24T03:30:34.010Z,10.76
2023-03-24T03:31:38.453Z,10.76
2023-03-24T03:32:45.417Z,10.77
2023-03-24T03:33:51.437Z,10.79
2023-03-24T03:34:57.434Z,10.78
2023-03-24T03:36:03.726Z,10.80
2023-03-24T03:37:08.280Z,10.81
2023-03-24T03:38:14.922Z,10.80
2023-03-24T03:39:22.820Z,10.82
2023-03-24T03:40:28.173Z,10.85
2023-03-24T03:41:29.992Z,10.86
2023-03-24T03:42:32.017Z,10.83
2023-03-24T03:43:34.287Z,10.84
2023-03-24T03:44:36.125Z,10.82
2023-03-24T03:45:37.965Z,10.86
2023-03-24T03:46:39.987Z,10.85
2023-03-24T03:47:42.062Z,10.85
2023-03-24T03:48:44.954Z,10.81
2023-03-24T03:49:46.669Z,10.82
2023-03-24T03:50:49.728Z,10.83
2023-03-24T03:51:55.908Z,10.82
2023-03-24T03:52:57.921Z,10.83
2023-03-24T03:54:01.842Z,10.80
2023-03-24T03:55:04.458Z,10.84
2023-03-24T03:56:06.407Z,10.80
2023-03-24T03:57:08.646Z,10.80
2023-03-24T03:58:10.583Z,10.74
2023-03-24T03:59:24.029Z,10.71
2023-03-24T04:00:26.296Z,10.63
2023-03-24T04:01:29.407Z,10.58
2023-03-24T04:02:49.708Z,10.53
2023-03-24T04:03:59.854Z,10.47
2023-03-24T04:05:06.299Z,10.48
2023-03-24T04:06:27.553Z,10.51
2023-03-24T04:07:46.690Z,10.55
2023-03-24T04:08:50.133Z,10.52
2023-03-24T04:09:51.952Z,10.50
2023-03-24T04:10:59.764Z,10.51
2023-03-24T04:12:02.094Z,10.54
2023-03-24T04:13:14.304Z,10.56
2023-03-24T04:14:16.177Z,10.55
2023-03-24T04:15:30.314Z,10.56
2023-03-24T04:16:46.010Z,10.59
2023-03-24T04:17:48.546Z,10.65
2023-03-24T04:19:07.991Z,10.69
2023-03-24T04:20:15.508Z,10.69
2023-03-24T04:21:23.505Z,10.70
2023-03-24T04:22:40.610Z,10.68
2023-03-24T04:23:46.246Z,10.71
2023-03-24T04:24:52.146Z,10.73
2023-03-24T04:25:58.762Z,10.77
2023-03-24T04:27:09.668Z,10.77
2023-03-24T04:28:11.395Z,10.72
2023-03-24T04:29:18.655Z,10.71
2023-03-24T04:30:46.747Z,10.66
2023-03-24T04:32:19.819Z,10.61
2023-03-24T04:33:29.074Z,10.55
2023-03-24T04:34:36.340Z,10.58
2023-03-24T04:35:42.656Z,10.61
2023-03-24T04:36:50.636Z,10.59
2023-03-24T04:37:53.352Z,10.59
2023-03-24T04:38:57.604Z,10.58
2023-03-24T04:40:01.804Z,10.59
2023-03-24T04:41:05.980Z,10.60
2023-03-24T04:42:12.279Z,10.63
2023-03-24T04:43:17.832Z,10.67
2023-03-24T04:44:22.077Z,10.68
2023-03-24T04:45:27.431Z,10.69
2023-03-24T04:46:30.619Z,10.72
2023-03-24T04:47:38.753Z,10.76
2023-03-24T04:48:40.890Z,10.80
2023-03-24T04:49:43.084Z,10.80
2023-03-24T04:50:50.354Z,10.77
2023-03-24T04:51:52.306Z,10.76
2023-03-24T04:52:54.099Z,10.78
2023-03-24T04:53:56.057Z,10.79
2023-03-24T04:54:57.991Z,10.78
2023-03-24T04:56:35.116Z,10.82
2023-03-24T04:57:36.968Z,10.80
2023-03-24T04:58:38.952Z,10.79
2023-03-24T04:59:40.890Z,10.76
2023-03-24T05:00:44.597Z,10.71
2023-03-24T05:01:52.584Z,10.68
2023-03-24T05:02:54.400Z,10.70
2023-03-24T05:03:57.524Z,10.65
2023-03-24T05:04:59.503Z,10.66
2023-03-24T05:06:01.972Z,10.67
2023-03-24T05:07:04.631Z,10.67
2023-03-24T05:08:06.503Z,10.68
2023-03-24T05:09:08.443Z,10.61
2023-03-24T05:10:11.011Z,10.58
2023-03-24T05:11:12.930Z,10.59
2023-03-24T05:12:14.855Z,10.59
2023-03-24T05:13:16.963Z,10.58
2023-03-24T05:14:18.773Z,10.59
2023-03-24T05:15:20.803Z,10.54
2023-03-24T05:16:22.792Z,10.55
2023-03-24T05:17:24.603Z,10.56
2023-03-24T05:18:26.709Z,10.56
2023-03-24T05:19:28.538Z,10.57
2023-03-24T05:20:30.565Z,10.56
2023-03-24T05:21:33.890Z,10.56
2023-03-24T05:22:35.740Z,10.61
2023-03-24T05:23:37.928Z,10.66
2023-03-24T05:24:40.962Z,10.69
2023-03-24T05:25:43.040Z,10.70
2023-03-24T05:26:45.144Z,10.71
2023-03-24T05:27:47.611Z,10.73
2023-03-24T05:28:49.453Z,10.74
2023-03-24T05:29:51.207Z,10.76
2023-03-24T05:30:53.022Z,10.78
2023-03-24T05:31:54.884Z,10.80
2023-03-24T05:32:56.707Z,10.80
2023-03-24T05:33:58.540Z,10.80
2023-03-24T05:35:00.541Z,10.81
2023-03-24T05:36:02.588Z,10.77
2023-03-24T05:37:04.509Z,10.74
2023-03-24T05:38:06.306Z,10.72
2023-03-24T05:39:08.251Z,10.71
2023-03-24T05:40:10.376Z,10.71
2023-03-24T05:41:12.127Z,10.76
2023-03-24T05:42:14.477Z,10.76
2023-03-24T05:43:16.294Z,10.73
2023-03-24T05:44:18.083Z,10.74
2023-03-24T05:45:20.200Z,10.74
2023-03-24T05:46:23.252Z,10.72
2023-03-24T05:47:27.620Z,10.69
2023-03-24T05:48:29.490Z,10.66
2023-03-24T05:49:32.154Z,10.69
2023-03-24T05:50:34.238Z,10.74
2023-03-24T05:51:36.018Z,10.78
2023-03-24T05:52:37.928Z,10.77
2023-03-24T05:53:39.753Z,10.78
2023-03-24T05:54:41.924Z,10.79
2023-03-24T05:55:45.476Z,10.79
2023-03-24T05:56:47.455Z,10.79
2023-03-24T05:57:49.299Z,10.81
2023-03-24T05:58:51.830Z,10.81
2023-03-24T05:59:53.548Z,10.80
2023-03-24T06:00:55.298Z,10.82
2023-03-24T06:01:57.165Z,10.82
2023-03-24T06:02:59.892Z,10.87
2023-03-24T06:04:01.868Z,10.89
2023-03-24T06:05:04.274Z,10.92
2023-03-24T06:06:09.894Z,10.89
2023-03-24T06:07:11.856Z,10.89
2023-03-24T06:08:13.805Z,10.90
2023-03-24T06:09:17.257Z,10.86
2023-03-24T06:10:19.219Z,10.86
2023-03-24T06:11:21.138Z,10.88
2023-03-24T06:12:22.884Z,10.89
2023-03-24T06:13:24.883Z,10.92
2023-03-24T06:14:26.852Z,10.90
2023-03-24T06:15:28.646Z,10.91
2023-03-24T06:16:34.089Z,10.93
2023-03-24T06:17:37.737Z,10.90
2023-03-24T06:18:42.977Z,10.90
2023-03-24T06:19:49.843Z,10.89
2023-03-24T06:20:51.800Z,10.90
2023-03-24T06:21:54.047Z,10.90
2023-03-24T06:22:59.491Z,10.89
2023-03-24T06:24:01.360Z,10.87
2023-03-24T06:25:05.365Z,10.86
2023-03-24T06:26:09.342Z,10.88
2023-03-24T06:27:11.728Z,10.89
2023-03-24T06:28:14.549Z,10.91
2023-03-24T06:29:18.342Z,10.90
2023-03-24T06:30:20.469Z,10.96
2023-03-24T06:31:22.370Z,10.96
2023-03-24T06:32:24.580Z,11.00
2023-03-24T06:33:26.403Z,11.04
2023-03-24T06:34:29.798Z,11.06
2023-03-24T06:35:31.677Z,11.06
2023-03-24T06:36:34.897Z,11.05
2023-03-24T06:37:36.688Z,11.03
2023-03-24T06:38:38.688Z,11.06
2023-03-24T06:39:41.221Z,11.07
2023-03-24T06:40:43.052Z,11.09
2023-03-24T06:41:44.874Z,11.09
2023-03-24T06:42:46.797Z,11.08
2023-03-24T06:43:48.616Z,11.07
2023-03-24T06:44:51.606Z,11.05
2023-03-24T06:45:53.372Z,11.05
2023-03-24T06:46:55.324Z,11.09
2023-03-24T06:47:57.602Z,11.13
2023-03-24T06:48:59.520Z,11.17
2023-03-24T06:50:01.444Z,11.19
2023-03-24T06:51:03.486Z,11.18
2023-03-24T06:52:05.447Z,11.20
2023-03-24T06:53:07.257Z,11.21
2023-03-24T06:54:09.783Z,11.22
2023-03-24T06:55:11.706Z,11.24
2023-03-24T06:56:18.537Z,11.29
2023-03-24T06:57:20.660Z,11.33
2023-03-24T06:58:22.887Z,11.36
2023-03-24T06:59:24.922Z,11.40
2023-03-24T07:00:27.394Z,11.37
2023-03-24T07:01:29.974Z,11.39
2023-03-24T07:02:35.818Z,11.37
2023-03-24T07:03:39.022Z,11.40
2023-03-24T07:04:40.821Z,11.41
2023-03-24T07:05:43.803Z,11.43
2023-03-24T07:06:58.559Z,11.39
2023-03-24T07:08:33.982Z,11.41
2023-03-24T07:09:29.761Z,11.43
2023-03-24T07:10:31.680Z,11.46
2023-03-24T07:11:33.506Z,11.48
2023-03-24T07:12:35.719Z,11.50
2023-03-24T07:13:37.794Z,11.53
2023-03-24T07:14:39.763Z,11.55
2023-03-24T07:15:41.958Z,11.56
2023-03-24T07:16:43.898Z,11.54
2023-03-24T07:17:46.062Z,11.59
2023-03-24T07:18:48.318Z,11.59
2023-03-24T07:19:50.154Z,11.61
2023-03-24T07:20:51.957Z,11.64
2023-03-24T07:21:53.836Z,11.67
2023-03-24T07:22:56.264Z,11.71
2023-03-24T07:23:58.112Z,11.76
2023-03-24T07:25:04.642Z,11.78
2023-03-24T07:26:07.049Z,11.82
2023-03-24T07:27:09.411Z,11.89
2023-03-24T07:28:11.252Z,11.93
2023-03-24T07:29:13.086Z,11.95
2023-03-24T07:30:15.047Z,11.98
2023-03-24T07:31:16.936Z,12.01
2023-03-24T07:32:19.066Z,12.04
2023-03-24T07:33:21.171Z,12.08
2023-03-24T07:34:23.028Z,12.13
2023-03-24T07:35:24.961Z,12.13
2023-03-24T07:36:26.778Z,12.17
2023-03-24T07:37:28.745Z,12.20
2023-03-24T07:38:31.254Z,12.27
2023-03-24T07:39:33.246Z,12.32
2023-03-24T07:40:37.651Z,12.37
2023-03-24T07:41:39.413Z,12.42
2023-03-24T07:42:42.514Z,12.44
2023-03-24T07:43:44.289Z,12.47
2023-03-24T07:44:46.682Z,12.50
2023-03-24T07:45:48.996Z,12.51
2023-03-24T07:46:51.280Z,12.57
2023-03-24T07:47:53.249Z,12.63
2023-03-24T07:48:55.085Z,12.65
2023-03-24T07:49:56.842Z,12.65
2023-03-24T07:50:58.610Z,12.67
2023-03-24T07:52:01.941Z,12.65
2023-03-24T07:53:03.997Z,12.65
2023-03-24T07:54:05.800Z,12.68
2023-03-24T07:55:09.792Z,12.71
2023-03-24T07:56:12.681Z,12.77
2023-03-24T07:57:14.610Z,12.76
2023-03-24T07:58:16.516Z,12.76
2023-03-24T07:59:18.425Z,12.74
2023-03-24T08:00:20.570Z,12.75
2023-03-24T08:01:22.971Z,12.79
2023-03-24T08:02:24.761Z,12.84
2023-03-24T08:03:28.734Z,12.86
2023-03-24T08:04:32.385Z,12.89
2023-03-24T08:05:34.569Z,12.92
2023-03-24T08:06:36.342Z,12.91
2023-03-24T08:07:42.838Z,12.93
2023-03-24T08:08:44.709Z,12.94
2023-03-24T08:09:46.531Z,12.97
2023-03-24T08:10:50.568Z,13.03
2023-03-24T08:11:52.289Z,13.01
2023-03-24T08:12:54.154Z,13.05
2023-03-24T08:13:56.314Z,13.08
2023-03-24T08:14:58.111Z,13.11
2023-03-24T08:15:59.927Z,13.09
2023-03-24T08:17:01.917Z,13.13
2023-03-24T08:18:04.541Z,13.16
2023-03-24T08:19:11.581Z,13.17
2023-03-24T08:20:15.034Z,13.16
2023-03-24T08:21:17.042Z,13.18
2023-03-24T08:22:18.879Z,13.19
2023-03-24T08:23:20.664Z,13.23
2023-03-24T08:24:22.646Z,13.25
2023-03-24T08:25:26.103Z,13.27
2023-03-24T08:26:28.026Z,13.29
2023-03-24T08:27:29.816Z,13.33
2023-03-24T08:28:31.635Z,13.35
2023-03-24T08:29:36.436Z,13.38
2023-03-24T08:30:38.282Z,13.40
2023-03-24T08:31:40.235Z,13.41
2023-03-24T08:32:46.059Z,13.44
2023-03-24T08:33:47.974Z,13.42
2023-03-24T08:34:49.805Z,13.45
2023-03-24T08:35:52.882Z,13.46
2023-03-24T08:36:54.634Z,13.49
2023-03-24T08:37:56.388Z,13.53
2023-03-24T08:38:58.212Z,13.59
2023-03-24T08:40:05.749Z,13.65
2023-03-24T08:41:08.679Z,13.70
2023-03-24T08:42:10.762Z,13.73
2023-03-24T08:43:16.134Z,13.74
2023-03-24T08:44:17.938Z,13.78
2023-03-24T08:45:24.137Z,13.83
2023-03-24T08:46:26.174Z,13.87
2023-03-24T08:47:30.957Z,13.94
2023-03-24T08:48:33.239Z,14.02
2023-03-24T08:49:35.154Z,14.07
2023-03-24T08:50:39.249Z,14.11
2023-03-24T08:51:41.512Z,14.14
2023-03-24T08:52:43.268Z,14.15
2023-03-24T08:53:44.972Z,14.14
2023-03-24T08:54:47.262Z,14.13
2023-03-24T08:55:49.441Z,14.14
2023-03-24T08:56:51.432Z,14.13
2023-03-24T08:57:55.283Z,14.12
2023-03-24T08:58:59.620Z,14.15
2023-03-24T09:00:01.442Z,14.19
2023-03-24T09:01:03.390Z,14.24
2023-03-24T09:02:05.210Z,14.30
2023-03-24T09:03:07.153Z,14.35
2023-03-24T09:04:09.078Z,14.39
2023-03-24T09:05:11.648Z,14.41
2023-03-24T09:06:13.856Z,14.46
2023-03-24T09:07:16.381Z,14.48
2023-03-24T09:08:19.519Z,14.49
2023-03-24T09:09:21.338Z,14.50
2023-03-24T09:10:23.145Z,14.47
2023-03-24T09:11:25.005Z,14.48
2023-03-24T09:12:26.735Z,14.53
2023-03-24T09:13:28.742Z,14.55
2023-03-24T09:14:30.857Z,14.57
2023-03-24T09:15:33.041Z,14.57
2023-03-24T09:16:34.955Z,14.58
2023-03-24T09:17:37.552Z,14.62
2023-03-24T09:18:39.914Z,14.64
2023-03-24T09:19:41.859Z,14.68
2023-03-24T09:20:44.603Z,14.70
2023-03-24T09:21:48.734Z,14.72
2023-03-24T09:22:50.789Z,14.73
2023-03-24T09:23:52.730Z,14.75
2023-03-24T09:24:54.541Z,14.77
2023-03-24T09:25:56.355Z,14.79
2023-03-24T09:26:58.212Z,14.82
2023-03-24T09:28:01.009Z,14.84
2023-03-24T09:29:03.330Z,14.88
2023-03-24T09:30:06.888Z,14.89
2023-03-24T09:31:09.141Z,14.91
2023-03-24T09:32:11.136Z,14.91
2023-03-24T09:33:13.118Z,14.94
2023-03-24T09:34:15.047Z,14.97
2023-03-24T09:35:16.941Z,15.00
2023-03-24T09:36:18.786Z,15.01
2023-03-24T09:37:21.172Z,15.04
2023-03-24T09:38:23.101Z,15.09
2023-03-24T09:39:24.958Z,15.13
2023-03-24T09:40:30.940Z,15.20
2023-03-24T09:41:34.517Z,15.23
2023-03-24T09:42:39.137Z,15.28
2023-03-24T09:43:46.851Z,15.32
2023-03-24T09:44:50.705Z,15.38
2023-03-24T09:45:57.368Z,15.39
2023-03-24T09:47:04.154Z,15.40
2023-03-24T09:48:13.652Z,15.39
2023-03-24T09:49:29.012Z,15.39
2023-03-24T09:50:58.411Z,15.43
2023-03-24T09:52:20.487Z,15.43
2023-03-24T09:53:38.216Z,15.49
2023-03-24T09:54:42.820Z,15.54
2023-03-24T09:55:45.782Z,15.57
2023-03-24T09:56:51.287Z,15.62
2023-03-24T09:58:01.591Z,15.65
2023-03-24T09:59:08.419Z,15.71
2023-03-24T10:00:19.168Z,15.73
2023-03-24T10:01:21.801Z,15.77
2023-03-24T10:02:24.089Z,15.84
2023-03-24T10:03:26.327Z,15.88
2023-03-24T10:04:28.951Z,15.94
2023-03-24T10:05:35.494Z,15.96
2023-03-24T10:06:42.451Z,15.99
2023-03-24T10:08:07.747Z,16.04
2023-03-24T10:09:09.482Z,16.08
2023-03-24T10:10:25.928Z,16.12
2023-03-24T10:11:48.140Z,16.12
2023-03-24T10:12:50.184Z,16.11
2023-03-24T10:14:11.875Z,16.13
2023-03-24T10:15:14.909Z,16.13
2023-03-24T10:16:36.960Z,16.15
2023-03-24T10:18:02.053Z,16.20
2023-03-24T10:19:12.643Z,16.26
2023-03-24T10:20:17.568Z,16.29
2023-03-24T10:21:26.018Z,16.36
2023-03-24T10:22:31.403Z,16.39
2023-03-24T10:23:55.185Z,16.46
2023-03-24T10:25:06.718Z,16.52
2023-03-24T10:26:33.395Z,16.59
2023-03-24T10:27:43.068Z,16.68
2023-03-24T10:28:52.395Z,16.79
2023-03-24T10:29:58.245Z,16.88
2023-03-24T10:31:02.591Z,16.99
2023-03-24T10:32:24.613Z,17.08
2023-03-24T10:33:26.656Z,17.19
2023-03-24T10:34:31.495Z,17.28
2023-03-24T10:35:35.868Z,17.34
2023-03-24T10:36:39.645Z,17.38
2023-03-24T10:37:41.446Z,17.44
2023-03-24T10:38:43.276Z,17.50
2023-03-24T10:39:45.470Z,17.58
2023-03-24T10:40:48.107Z,17.65
2023-03-24T10:41:51.500Z,17.71
2023-03-24T10:43:06.805Z,17.77
2023-03-24T10:44:12.567Z,17.80
2023-03-24T10:45:22.601Z,17.77
2023-03-24T10:46:27.551Z,17.77
2023-03-24T10:47:32.953Z,17.79
2023-03-24T10:48:50.457Z,17.82
2023-03-24T10:50:13.990Z,17.85
2023-03-24T10:51:28.720Z,17.83
2023-03-24T10:52:43.077Z,17.88
2023-03-24T10:53:49.402Z,17.94
2023-03-24T10:55:06.609Z,18.02
2023-03-24T10:56:08.595Z,18.09
2023-03-24T10:57:18.152Z,18.17
2023-03-24T10:58:38.639Z,18.25
2023-03-24T10:59:51.556Z,18.32
2023-03-24T11:00:54.440Z,18.36
2023-03-24T11:01:58.070Z,18.40
2023-03-24T11:03:01.797Z,18.45
2023-03-24T11:04:06.009Z,18.51
2023-03-24T11:05:16.096Z,18.57
2023-03-24T11:06:19.500Z,18.64
2023-03-24T11:07:22.921Z,18.67
2023-03-24T11:08:38.307Z,18.70
2023-03-24T11:09:44.157Z,18.77
2023-03-24T11:10:46.041Z,18.87
2023-03-24T11:11:48.398Z,18.92
2023-03-24T11:12:58.008Z,18.95
2023-03-24T11:14:03.722Z,19.03
2023-03-24T11:15:22.984Z,19.13
2023-03-24T11:16:35.994Z,19.22
2023-03-24T11:17:38.195Z,19.30
2023-03-24T11:18:55.100Z,19.35
2023-03-24T11:19:57.826Z,19.41
2023-03-24T11:21:04.379Z,19.46
2023-03-24T11:22:07.542Z,19.51
2023-03-24T11:23:11.638Z,19.52
2023-03-24T11:24:15.951Z,19.55
2023-03-24T11:25:17.866Z,19.57
2023-03-24T11:26:24.203Z,19.58
2023-03-24T11:27:26.084Z,19.59
2023-03-24T11:28:28.703Z,19.59
2023-03-24T11:29:32.101Z,19.57
2023-03-24T11:30:35.305Z,19.53
2023-03-24T11:31:39.401Z,19.52
2023-03-24T11:32:45.999Z,19.50
2023-03-24T11:33:56.982Z,19.48
2023-03-24T11:35:10.145Z,19.42
2023-03-24T11:36:33.251Z,19.38
2023-03-24T11:37:36.341Z,19.33
2023-03-24T11:38:38.252Z,19.30
2023-03-24T11:39:40.591Z,19.28
2023-03-24T11:40:53.010Z,19.24
2023-03-24T11:42:02.014Z,19.20
2023-03-24T11:43:04.097Z,19.16
2023-03-24T11:44:26.449Z,19.14
2023-03-24T11:45:28.396Z,19.09
2023-03-24T11:46:30.252Z,19.06
2023-03-24T11:47:38.759Z,19.03
2023-03-24T11:48:42.071Z,18.98
2023-03-24T11:49:47.403Z,18.96
2023-03-24T11:50:49.356Z,18.95
2023-03-24T11:51:53.777Z,18.91
2023-03-24T11:53:12.488Z,18.88
2023-03-24T11:54:15.337Z,18.86
2023-03-24T11:55:37.540Z,18.85
2023-03-24T11:56:42.061Z,18.84
2023-03-24T11:57:43.812Z,18.83
2023-03-24T11:59:15.196Z,18.83
2023-03-24T12:00:29.472Z,18.79
2023-03-24T12:01:36.938Z,18.79
2023-03-24T12:02:58.058Z,18.78
2023-03-24T12:04:20.151Z,18.77
2023-03-24T12:05:30.711Z,18.77
2023-03-24T12:06:46.606Z,18.77
2023-03-24T12:08:07.355Z,18.77
2023-03-24T12:09:15.486Z,18.78
2023-03-24T12:10:22.748Z,18.76
2023-03-24T12:11:30.398Z,18.73
2023-03-24T12:12:40.770Z,18.73
2023-03-24T12:13:44.352Z,18.70
2023-03-24T12:15:09.671Z,18.68
2023-03-24T12:16:35.964Z,18.69
2023-03-24T12:17:42.890Z,18.66
2023-03-24T12:19:03.207Z,18.65
2023-03-24T12:20:23.882Z,18.59
2023-03-24T12:21:34.492Z,18.61
2023-03-24T12:22:43.691Z,18.61
2023-03-24T12:24:00.410Z,18.55
2023-03-24T12:25:32.048Z,18.53
2023-03-24T12:26:35.157Z,18.53
2023-03-24T12:28:04.508Z,18.54
2023-03-24T12:29:22.008Z,18.50
2023-03-24T12:30:34.757Z,18.53
2023-03-24T12:32:02.628Z,18.53
2023-03-24T12:33:23.907Z,18.52
2023-03-24T12:34:32.033Z,18.47
2023-03-24T12:36:00.024Z,18.43
2023-03-24T12:37:16.338Z,18.39
2023-03-24T12:38:37.079Z,18.31
2023-03-24T12:39:48.264Z,18.28
2023-03-24T12:40:56.322Z,18.25
2023-03-24T12:42:11.092Z,18.18
2023-03-24T12:43:18.967Z,18.15
2023-03-24T12:44:20.853Z,18.10
2023-03-24T12:46:01.224Z,18.03
2023-03-24T12:47:21.817Z,17.95
2023-03-24T12:48:38.813Z,17.93
2023-03-24T12:49:43.592Z,17.90
2023-03-24T12:50:45.601Z,17.88
2023-03-24T12:51:55.495Z,17.86
2023-03-24T12:53:07.551Z,17.80
2023-03-24T12:54:26.604Z,17.79
2023-03-24T12:55:34.131Z,17.76
2023-03-24T12:56:41.851Z,17.73
2023-03-24T12:57:54.619Z,17.68
2023-03-24T12:59:04.991Z,17.63
2023-03-24T13:00:13.461Z,17.60
2023-03-24T13:01:32.318Z,17.57
2023-03-24T13:02:37.865Z,17.57
2023-03-24T13:03:45.779Z,17.54
2023-03-24T13:04:50.056Z,17.50
2023-03-24T13:05:56.634Z,17.44
2023-03-24T13:07:12.751Z,17.42
2023-03-24T13:08:24.292Z,17.42
2023-03-24T13:09:32.251Z,17.37
2023-03-24T13:10:40.817Z,17.34
2023-03-24T13:12:04.354Z,17.31
2023-03-24T13:13:13.287Z,17.28
2023-03-24T13:14:22.929Z,17.22
2023-03-24T13:16:09.678Z,17.16
2023-03-24T13:17:22.572Z,17.11
2023-03-24T13:18:31.186Z,17.09
2023-03-24T13:19:37.195Z,17.08
2023-03-24T13:21:04.312Z,17.10
2023-03-24T13:22:08.024Z,17.04
2023-03-24T13:23:25.420Z,17.04
2023-03-24T13:24:27.569Z,17.03
2023-03-24T13:25:45.415Z,17.00
2023-03-24T13:27:03.298Z,17.00
2023-03-24T13:28:08.104Z,16.96
2023-03-24T13:29:14.683Z,16.91
2023-03-24T13:30:19.300Z,16.86
2023-03-24T13:31:22.505Z,16.81
2023-03-24T13:32:24.605Z,16.74
2023-03-24T13:33:30.261Z,16.73
2023-03-24T13:34:36.599Z,16.72
2023-03-24T13:35:38.461Z,16.69
2023-03-24T13:36:46.513Z,16.68
2023-03-24T13:38:14.477Z,16.67
2023-03-24T13:39:21.172Z,16.62
2023-03-24T13:40:28.877Z,16.56
2023-03-24T13:41:37.907Z,16.54
2023-03-24T13:42:44.220Z,16.51
2023-03-24T13:43:57.563Z,16.48
2023-03-24T13:45:06.785Z,16.46
2023-03-24T13:46:14.346Z,16.47
2023-03-24T13:47:18.824Z,16.48
2023-03-24T13:48:50.847Z,16.45
2023-03-24T13:50:06.459Z,16.39
2023-03-24T13:51:34.965Z,16.32
2023-03-24T13:52:40.722Z,16.32
2023-03-24T13:53:56.642Z,16.33
2023-03-24T13:55:01.890Z,16.31
2023-03-24T13:56:06.966Z,16.28
2023-03-24T13:57:20.996Z,16.25
2023-03-24T13:58:26.535Z,16.23
2023-03-24T13:59:31.533Z,16.18
2023-03-24T14:00:33.880Z,16.14
2023-03-24T14:01:38.082Z,16.11
2023-03-24T14:02:50.204Z,16.11
2023-03-24T14:04:20.548Z,16.10
2023-03-24T14:05:22.480Z,16.11
2023-03-24T14:06:51.437Z,16.06
2023-03-24T14:08:15.356Z,15.99
2023-03-24T14:09:22.548Z,15.98
2023-03-24T14:10:24.282Z,16.00
2023-03-24T14:11:34.928Z,15.99
2023-03-24T14:12:52.086Z,15.99